createdAt,value
2023-04-02T00:00:37.100Z,61.15
2023-04-02T00:03:07.082Z,61.56
2023-04-02T00:05:46.417Z,61.43
2023-04-02T00:08:23.889Z,61.45
2023-04-02T00:10:52.462Z,62.01
2023-04-02T00:13:36.532Z,61.01
2023-04-02T00:16:07.931Z,60.54
2023-04-02T00:18:40.308Z,60.00
2023-04-02T00:21:20.477Z,60.25
2023-04-02T00:23:47.484Z,59.99
2023-04-02T00:26:34.341Z,59.69
2023-04-02T00:29:03.574Z,59.60
2023-04-02T00:31:31.477Z,59.45
2023-04-02T00:34:03.464Z,59.36
2023-04-02T00:36:33.212Z,59.38
2023-04-02T00:39:04.442Z,59.28
2023-04-02T00:41:32.718Z,59.32
2023-04-02T00:44:00.949Z,58.75
2023-04-02T00:46:39.169Z,59.42
2023-04-02T00:49:10.590Z,59.23
2023-04-02T00:51:44.739Z,59.60
2023-04-02T00:54:13.195Z,59.34
2023-04-02T00:56:45.111Z,59.44
2023-04-02T00:59:26.569Z,59.02
2023-04-02T01:02:16.795Z,58.99
2023-04-02T01:05:02.659Z,59.02
2023-04-02T01:07:53.956Z,58.42
2023-04-02T01:10:51.379Z,58.77
2023-04-02T01:13:28.993Z,58.33
2023-04-02T01:16:04.961Z,58.46
2023-04-02T01:19:20.173Z,58.10
2023-04-02T01:21:47.057Z,57.79
2023-04-02T01:24:14.643Z,57.87
2023-04-02T01:26:58.638Z,57.68
2023-04-02T01:29:40.408Z,57.79
2023-04-02T01:32:12.046Z,57.75
2023-04-02T01:34:41.429Z,57.95
2023-04-02T01:37:14.342Z,57.91
2023-04-02T01:40:06.350Z,58.15
2023-04-02T01:42:52.078Z,57.38
2023-04-02T01:45:21.407Z,57.37
2023-04-02T01:47:49.982Z,57.81
2023-04-02T01:50:20.139Z,57.62
2023-04-02T01:52:50.586Z,57.66
2023-04-02T01:55:24.777Z,57.96
2023-04-02T01:57:54.491Z,57.06
2023-04-02T02:00:21.483Z,57.76
2023-04-02T02:02:52.157Z,57.71
2023-04-02T02:05:22.458Z,57.08
2023-04-02T02:07:52.096Z,57.17
2023-04-02T02:10:25.998Z,57.18
2023-04-02T02:12:53.053Z,56.99
2023-04-02T02:15:22.887Z,57.24
2023-04-02T02:17:50.512Z,56.99
2023-04-02T02:20:18.217Z,56.60
2023-04-02T02:22:48.558Z,57.00
2023-04-02T02:25:19.567Z,57.19
2023-04-02T02:27:59.497Z,57.13
2023-04-02T02:30:49.413Z,57.78
2023-04-02T02:33:26.920Z,57.57
2023-04-02T02:36:16.658Z,58.23
2023-04-02T02:38:49.595Z,57.33
2023-04-02T02:41:39.586Z,57.60
2023-04-02T02:44:11.859Z,56.89
2023-04-02T02:46:54.668Z,57.06
2023-04-02T02:49:28.101Z,56.94
2023-04-02T02:52:21.192Z,56.86
2023-04-02T02:55:16.004Z,57.34
2023-04-02T02:58:26.581Z,57.08
2023-04-02T03:01:14.081Z,56.89
2023-04-02T03:03:43.933Z,56.95
2023-04-02T03:06:15.895Z,56.73
2023-04-02T03:08:54.412Z,56.42
2023-04-02T03:11:35.089Z,56.71
2023-04-02T03:14:36.418Z,56.76
2023-04-02T03:17:17.731Z,57.03
2023-04-02T03:20:01.228Z,56.09
2023-04-02T03:22:34.872Z,56.80
2023-04-02T03:25:26.790Z,56.59
2023-04-02T03:28:02.393Z,56.77
2023-04-02T03:30:50.869Z,57.04
2023-04-02T03:33:31.957Z,56.98
2023-04-02T03:36:39.172Z,58.06
2023-04-02T03:39:33.320Z,57.51
2023-04-02T03:42:08.024Z,57.19
2023-04-02T03:44:38.325Z,57.56
2023-04-02T03:47:14.617Z,57.23
2023-04-02T03:49:56.006Z,57.61
2023-04-02T03:52:28.629Z,56.73
2023-04-02T03:55:02.051Z,56.45
2023-04-02T03:57:43.819Z,56.80
2023-04-02T04:00:27.317Z,56.84
2023-04-02T04:03:03.269Z,56.75
2023-04-02T04:05:45.056Z,56.77
2023-04-02T04:08:20.952Z,56.58
2023-04-02T04:10:53.128Z,56.37
2023-04-02T04:13:29.271Z,55.94
2023-04-02T04:16:20.309Z,55.96
2023-04-02T04:18:57.040Z,55.96
2023-04-02T04:21:28.700Z,56.13
2023-04-02T04:24:16.730Z,55.65
2023-04-02T04:26:53.220Z,55.91
2023-04-02T04:29:50.408Z,55.78
2023-04-02T04:32:26.853Z,55.48
2023-04-02T04:35:02.696Z,54.56
2023-04-02T04:37:39.553Z,54.81
2023-04-02T04:40:19.929Z,54.66
2023-04-02T04:42:55.044Z,54.51
2023-04-02T04:45:28.840Z,54.16
2023-04-02T04:48:07.157Z,53.23
2023-04-02T04:50:41.497Z,53.58
2023-04-02T04:53:17.431Z,52.36
2023-04-02T04:55:47.070Z,51.73
2023-04-02T04:58:24.706Z,51.09
2023-04-02T05:01:14.375Z,50.43
2023-04-02T05:04:06.072Z,50.47
2023-04-02T05:06:49.683Z,49.74
2023-04-02T05:09:31.897Z,49.84
2023-04-02T05:12:17.848Z,49.04
2023-04-02T05:15:11.970Z,48.86
2023-04-02T05:17:55.873Z,48.44
2023-04-02T05:20:29.708Z,47.88
2023-04-02T05:23:19.078Z,47.31
2023-04-02T05:26:33.916Z,47.17
2023-04-02T05:29:15.485Z,47.06
2023-04-02T05:31:50.892Z,47.04
2023-04-02T05:34:25.793Z,47.16
2023-04-02T05:36:54.499Z,46.47
2023-04-02T05:39:26.630Z,45.97
2023-04-02T05:42:06.997Z,46.38
2023-04-02T05:45:20.621Z,46.41
2023-04-02T05:47:52.348Z,46.47
2023-04-02T05:50:35.594Z,46.49
2023-04-02T05:53:21.452Z,45.96
2023-04-02T05:56:17.935Z,45.57
2023-04-02T05:58:55.107Z,45.46
2023-04-02T06:01:44.541Z,45.50
2023-04-02T06:04:26.907Z,45.26
2023-04-02T06:07:26.645Z,45.40
2023-04-02T06:10:06.754Z,44.48
2023-04-02T06:12:44.995Z,45.19
2023-04-02T06:15:18.736Z,44.90
2023-04-02T06:18:00.159Z,43.79
2023-04-02T06:20:28.397Z,43.73
2023-04-02T06:23:16.504Z,44.34
2023-04-02T06:25:57.757Z,42.52
2023-04-02T06:28:51.075Z,42.07
2023-04-02T06:31:45.168Z,41.81
2023-04-02T06:34:29.078Z,41.38
2023-04-02T06:37:32.076Z,41.46
2023-04-02T06:40:37.207Z,42.82
2023-04-02T06:43:27.809Z,42.87
2023-04-02T06:46:08.065Z,43.62
2023-04-02T06:49:02.417Z,44.43
2023-04-02T06:51:33.589Z,43.77
2023-04-02T06:54:02.786Z,43.97
2023-04-02T06:56:38.628Z,44.13
2023-04-02T06:59:06.691Z,44.08
2023-04-02T07:01:40.282Z,45.09
2023-04-02T07:04:08.997Z,44.25
2023-04-02T07:06:44.553Z,44.69
2023-04-02T07:09:14.016Z,43.76
2023-04-02T07:11:47.269Z,43.46
2023-04-02T07:14:15.017Z,43.37
2023-04-02T07:16:43.441Z,42.95
2023-04-02T07:19:19.201Z,43.19
2023-04-02T07:21:47.087Z,42.64
2023-04-02T07:24:14.424Z,42.42
2023-04-02T07:26:41.404Z,41.62
2023-04-02T07:29:13.773Z,41.56
2023-04-02T07:31:40.806Z,40.96
2023-04-02T07:34:08.321Z,40.63
2023-04-02T07:36:35.233Z,41.86
2023-04-02T07:39:02.612Z,42.06
2023-04-02T07:41:29.650Z,42.41
2023-04-02T07:43:56.632Z,41.24
2023-04-02T07:46:26.218Z,41.68
2023-04-02T07:48:53.235Z,40.73
2023-04-02T07:51:26.121Z,41.54
2023-04-02T07:53:53.609Z,40.95
2023-04-02T07:56:20.833Z,40.48
2023-04-02T07:58:48.472Z,40.91
2023-04-02T08:01:21.096Z,40.55
2023-04-02T08:03:48.117Z,40.48
2023-04-02T08:06:15.336Z,40.79
2023-04-02T08:08:42.845Z,39.97
2023-04-02T08:11:10.723Z,39.00
2023-04-02T08:13:38.188Z,40.38
2023-04-02T08:16:06.907Z,39.89
2023-04-02T08:18:34.578Z,39.24
2023-04-02T08:21:01.654Z,39.11
2023-04-02T08:23:28.625Z,39.37
2023-04-02T08:25:55.893Z,39.50
2023-04-02T08:28:22.976Z,39.35
2023-04-02T08:30:50.585Z,39.58
2023-04-02T08:33:17.850Z,38.54
2023-04-02T08:35:46.291Z,38.62
2023-04-02T08:38:19.116Z,38.81
2023-04-02T08:40:50.733Z,39.56
2023-04-02T08:43:33.282Z,38.51
2023-04-02T08:46:18.458Z,38.84
2023-04-02T08:48:55.923Z,39.03
2023-04-02T08:51:27.123Z,37.52
2023-04-02T08:53:56.707Z,38.20
2023-04-02T08:56:34.089Z,38.71
2023-04-02T08:59:09.366Z,37.86
2023-04-02T09:01:41.961Z,38.42
2023-04-02T09:04:19.086Z,38.24
2023-04-02T09:06:47.337Z,38.05
2023-04-02T09:09:16.551Z,38.67
2023-04-02T09:11:57.308Z,38.25
2023-04-02T09:14:42.247Z,38.07
2023-04-02T09:17:27.752Z,37.37
2023-04-02T09:20:03.997Z,37.86
2023-04-02T09:22:33.532Z,37.37
2023-04-02T09:25:03.955Z,37.02
2023-04-02T09:27:36.063Z,37.53
2023-04-02T09:30:21.749Z,38.14
2023-04-02T09:32:48.873Z,37.00
2023-04-02T09:35:27.290Z,38.48
2023-04-02T09:38:20.804Z,38.78
2023-04-02T09:41:02.003Z,37.85
2023-04-02T09:43:37.752Z,37.89
2023-04-02T09:46:13.974Z,37.67
2023-04-02T09:48:45.389Z,37.08
2023-04-02T09:51:14.541Z,36.59
2023-04-02T09:53:47.046Z,36.45
2023-04-02T09:56:22.831Z,37.25
2023-04-02T09:59:19.009Z,37.46
2023-04-02T10:01:47.244Z,37.02
2023-04-02T10:04:40.190Z,37.37
2023-04-02T10:07:07.230Z,36.09
2023-04-02T10:09:36.888Z,36.18
2023-04-02T10:12:13.672Z,36.14
2023-04-02T10:14:44.824Z,35.90
2023-04-02T10:17:23.415Z,35.96
2023-04-02T10:20:01.635Z,35.93
2023-04-02T10:22:28.973Z,34.87
2023-04-02T10:24:58.173Z,35.57
2023-04-02T10:27:47.056Z,35.59
2023-04-02T10:30:16.568Z,36.14
2023-04-02T10:32:43.455Z,35.50
2023-04-02T10:35:35.449Z,35.16
2023-04-02T10:38:11.595Z,34.52
2023-04-02T10:40:47.953Z,35.91
2023-04-02T10:43:47.038Z,35.19
2023-04-02T10:46:25.116Z,34.38
2023-04-02T10:49:16.887Z,35.25
2023-04-02T10:52:05.356Z,34.55
2023-04-02T10:54:38.157Z,35.55
2023-04-02T10:57:39.163Z,35.79
2023-04-02T11:00:12.535Z,36.62
2023-04-02T11:02:56.939Z,36.21
2023-04-02T11:05:40.443Z,35.46
2023-04-02T11:08:27.530Z,35.11
2023-04-02T11:11:05.694Z,35.80
2023-04-02T11:13:56.784Z,35.39
2023-04-02T11:16:24.706Z,35.35
2023-04-02T11:19:16.566Z,34.98
2023-04-02T11:21:58.737Z,35.54
2023-04-02T11:24:30.448Z,35.07
2023-04-02T11:27:20.750Z,35.37
2023-04-02T11:29:53.867Z,35.32
2023-04-02T11:32:20.800Z,34.79
2023-04-02T11:34:56.347Z,34.16
2023-04-02T11:37:39.981Z,34.91
2023-04-02T11:40:13.015Z,34.89
2023-04-02T11:42:45.609Z,35.15
2023-04-02T11:45:21.542Z,35.38
2023-04-02T11:48:00.689Z,35.67
2023-04-02T11:50:32.258Z,36.21
2023-04-02T11:53:03.677Z,35.38
2023-04-02T11:55:32.719Z,35.31
2023-04-02T11:58:11.263Z,35.14
2023-04-02T12:01:06.179Z,34.58
2023-04-02T12:03:57.955Z,33.88
2023-04-02T12:07:06.546Z,34.11
2023-04-02T12:09:49.116Z,33.36
2023-04-02T12:12:25.803Z,32.99
2023-04-02T12:14:57.845Z,32.58
2023-04-02T12:17:34.621Z,32.68
2023-04-02T12:20:07.627Z,33.14
2023-04-02T12:22:39.927Z,33.23
2023-04-02T12:25:37.380Z,33.75
2023-04-02T12:28:10.192Z,33.01
2023-04-02T12:30:41.361Z,32.87
2023-04-02T12:33:35.834Z,32.93
2023-04-02T12:36:05.465Z,33.99
2023-04-02T12:38:43.455Z,32.76
2023-04-02T12:41:30.801Z,32.73
2023-04-02T12:44:02.033Z,32.36
2023-04-02T12:46:31.078Z,31.80
2023-04-02T12:49:30.460Z,32.53
2023-04-02T12:51:58.378Z,31.99
2023-04-02T12:54:25.443Z,32.22
2023-04-02T12:56:52.436Z,32.05
2023-04-02T12:59:34.216Z,32.03
2023-04-02T13:02:03.801Z,32.37
2023-04-02T13:04:30.753Z,32.02
2023-04-02T13:06:57.735Z,32.03
2023-04-02T13:09:41.004Z,32.12
2023-04-02T13:12:25.497Z,32.49
2023-04-02T13:14:57.813Z,31.84
2023-04-02T13:17:44.227Z,32.22
2023-04-02T13:20:34.958Z,32.28
2023-04-02T13:23:25.744Z,32.39
2023-04-02T13:25:53.537Z,32.07
2023-04-02T13:28:20.909Z,32.13
2023-04-02T13:30:48.190Z,32.08
2023-04-02T13:33:15.832Z,32.76
2023-04-02T13:35:43.919Z,32.77
2023-04-02T13:38:10.838Z,32.45
2023-04-02T13:40:38.706Z,31.94
2023-04-02T13:43:07.017Z,32.21
2023-04-02T13:45:39.281Z,32.66
2023-04-02T13:48:06.519Z,32.55
2023-04-02T13:50:35.197Z,32.44
2023-04-02T13:53:09.034Z,32.85
2023-04-02T13:55:42.098Z,33.23
2023-04-02T13:58:10.712Z,32.96
2023-04-02T14:00:37.824Z,32.86
2023-04-02T14:03:25.041Z,32.92
2023-04-02T14:06:26.364Z,33.13
2023-04-02T14:09:02.410Z,33.27
2023-04-02T14:11:41.364Z,32.95
2023-04-02T14:14:39.846Z,32.73
2023-04-02T14:17:28.378Z,32.66
2023-04-02T14:20:04.404Z,32.69
2023-04-02T14:22:57.032Z,33.09
2023-04-02T14:25:35.588Z,33.14
2023-04-02T14:28:19.406Z,33.67
2023-04-02T14:31:07.887Z,34.08
2023-04-02T14:33:55.648Z,34.09
2023-04-02T14:36:22.558Z,34.19
2023-04-02T14:38:57.805Z,34.71
2023-04-02T14:42:03.056Z,34.93
2023-04-02T14:44:36.818Z,34.92
2023-04-02T14:48:08.421Z,35.16
2023-04-02T14:50:40.818Z,34.90
2023-04-02T14:53:15.897Z,35.64
2023-04-02T14:55:44.723Z,35.83
2023-04-02T14:58:19.207Z,36.61
2023-04-02T15:01:03.223Z,36.62
2023-04-02T15:03:37.585Z,36.11
2023-04-02T15:06:11.965Z,36.12
2023-04-02T15:08:48.226Z,36.69
2023-04-02T15:11:27.216Z,36.82
2023-04-02T15:14:04.377Z,36.92
2023-04-02T15:16:31.693Z,37.06
2023-04-02T15:19:03.529Z,36.98
2023-04-02T15:21:55.879Z,37.37
2023-04-02T15:24:51.669Z,37.30
2023-04-02T15:27:33.924Z,37.25
2023-04-02T15:30:20.255Z,37.51
2023-04-02T15:32:47.311Z,37.68
2023-04-02T15:35:33.771Z,38.19
2023-04-02T15:38:12.606Z,37.77
2023-04-02T15:40:59.477Z,38.02
2023-04-02T15:43:31.108Z,38.24
2023-04-02T15:46:35.600Z,38.34
2023-04-02T15:49:28.214Z,38.50
2023-04-02T15:52:08.099Z,38.73
2023-04-02T15:54:45.153Z,39.14
2023-04-02T15:57:24.013Z,39.09
2023-04-02T16:00:01.222Z,39.73
2023-04-02T16:03:18.805Z,39.94
2023-04-02T16:06:09.937Z,39.67
2023-04-02T16:08:59.314Z,40.07
2023-04-02T16:11:26.834Z,40.73
2023-04-02T16:14:24.135Z,40.65
2023-04-02T16:16:54.672Z,41.23
2023-04-02T16:19:33.713Z,41.13
2023-04-02T16:22:16.550Z,41.45
2023-04-02T16:24:43.653Z,41.92
2023-04-02T16:27:34.460Z,41.98
2023-04-02T16:30:22.924Z,41.63
2023-04-02T16:32:55.552Z,42.18
2023-04-02T16:35:56.233Z,41.83
2023-04-02T16:38:58.439Z,42.15
2023-04-02T16:41:55.826Z,42.03
2023-04-02T16:44:34.895Z,42.11
2023-04-02T16:47:30.014Z,42.44
2023-04-02T16:50:34.728Z,42.40
2023-04-02T16:53:20.286Z,42.97
2023-04-02T16:55:50.344Z,43.36
2023-04-02T16:58:28.395Z,43.68
2023-04-02T17:01:14.857Z,43.83
2023-04-02T17:04:02.536Z,43.43
2023-04-02T17:06:47.949Z,43.75
2023-04-02T17:09:22.743Z,43.91
2023-04-02T17:11:55.518Z,43.70
2023-04-02T17:15:01.208Z,43.88
2023-04-02T17:17:47.602Z,43.71
2023-04-02T17:20:23.215Z,44.22
2023-04-02T17:22:51.778Z,44.93
2023-04-02T17:25:33.660Z,44.81
2023-04-02T17:28:02.712Z,44.59
2023-04-02T17:30:43.522Z,44.50
2023-04-02T17:33:16.290Z,45.26
2023-04-02T17:36:01.434Z,44.90
2023-04-02T17:39:08.399Z,45.36
2023-04-02T17:41:53.725Z,45.77
2023-04-02T17:44:31.654Z,45.47
2023-04-02T17:47:14.284Z,45.13
2023-04-02T17:49:59.738Z,45.01
2023-04-02T17:52:55.567Z,45.53
2023-04-02T17:55:53.427Z,45.88
2023-04-02T17:58:29.230Z,45.80
2023-04-02T18:00:56.221Z,46.47
2023-04-02T18:03:38.203Z,46.19
2023-04-02T18:06:16.202Z,46.79
2023-04-02T18:09:00.769Z,47.35
2023-04-02T18:11:52.191Z,47.93
2023-04-02T18:14:19.071Z,47.94
2023-04-02T18:17:30.675Z,47.05
2023-04-02T18:20:15.360Z,48.13
2023-04-02T18:23:21.011Z,47.93
2023-04-02T18:26:25.310Z,47.40
2023-04-02T18:29:21.263Z,47.48
2023-04-02T18:32:17.530Z,48.55
2023-04-02T18:34:59.804Z,49.18
2023-04-02T18:37:33.781Z,50.12
2023-04-02T18:40:16.182Z,50.51
2023-04-02T18:42:48.450Z,50.47
2023-04-02T18:45:28.789Z,51.14
2023-04-02T18:47:58.735Z,51.07
2023-04-02T18:50:38.068Z,52.18
2023-04-02T18:53:14.458Z,51.72
2023-04-02T18:55:48.516Z,51.92
2023-04-02T18:58:23.321Z,51.89
2023-04-02T19:00:51.150Z,52.31
2023-04-02T19:03:32.947Z,52.94
2023-04-02T19:06:12.121Z,52.96
2023-04-02T19:08:58.808Z,53.71
2023-04-02T19:11:27.004Z,54.35
2023-04-02T19:14:07.131Z,54.29
2023-04-02T19:16:46.351Z,54.98
2023-04-02T19:19:26.826Z,54.22
2023-04-02T19:22:11.917Z,54.63
2023-04-02T19:25:00.262Z,55.11
2023-04-02T19:27:30.163Z,54.50
2023-04-02T19:30:28.955Z,54.76
2023-04-02T19:32:59.108Z,55.53
2023-04-02T19:35:36.156Z,55.40
2023-04-02T19:38:22.119Z,56.01
2023-04-02T19:41:04.290Z,55.20
2023-04-02T19:43:31.359Z,54.81
2023-04-02T19:45:59.467Z,54.57
2023-04-02T19:48:30.762Z,54.88
2023-04-02T19:50:57.990Z,54.77
2023-04-02T19:53:24.850Z,55.19
2023-04-02T19:55:51.859Z,55.57
2023-04-02T19:58:32.426Z,56.13
2023-04-02T20:01:00.088Z,56.47
2023-04-02T20:03:27.383Z,56.12
2023-04-02T20:05:54.511Z,56.42
2023-04-02T20:08:21.363Z,55.92
2023-04-02T20:10:48.306Z,57.72
2023-04-02T20:13:15.219Z,57.59
2023-04-02T20:15:42.164Z,57.45
2023-04-02T20:18:09.312Z,57.61
2023-04-02T20:20:37.659Z,57.63
2023-04-02T20:23:05.078Z,58.46
2023-04-02T20:25:32.417Z,57.72
2023-04-02T20:27:59.341Z,58.01
2023-04-02T20:30:26.398Z,58.60
2023-04-02T20:32:53.403Z,58.35
2023-04-02T20:35:20.479Z,58.33
2023-04-02T20:37:47.275Z,57.57
2023-04-02T20:40:14.319Z,57.53
2023-04-02T20:42:41.250Z,58.02
2023-04-02T20:45:09.023Z,58.94
2023-04-02T20:47:35.908Z,59.05
2023-04-02T20:50:02.927Z,58.04
2023-04-02T20:52:29.850Z,58.51
2023-04-02T20:54:56.719Z,58.61
2023-04-02T20:57:23.563Z,58.96
2023-04-02T20:59:50.682Z,58.52
2023-04-02T21:02:17.545Z,59.08
2023-04-02T21:04:44.443Z,59.29
2023-04-02T21:07:11.336Z,58.60
2023-04-02T21:09:38.280Z,58.23
2023-04-02T21:12:05.487Z,58.22
2023-04-02T21:14:32.389Z,58.36
2023-04-02T21:16:59.308Z,58.53
2023-04-02T21:19:26.268Z,58.56
2023-04-02T21:21:55.033Z,58.61
2023-04-02T21:24:21.996Z,58.54
2023-04-02T21:26:50.038Z,59.18
2023-04-02T21:29:17.481Z,59.71
2023-04-02T21:31:44.622Z,59.32
2023-04-02T21:34:16.499Z,59.85
2023-04-02T21:36:45.757Z,60.08
2023-04-02T21:39:20.879Z,60.27
2023-04-02T21:41:49.700Z,59.66
2023-04-02T21:44:18.744Z,59.72
2023-04-02T21:46:46.389Z,59.96
2023-04-02T21:49:16.975Z,59.29
2023-04-02T21:51:45.622Z,58.71
2023-04-02T21:54:12.986Z,58.65
2023-04-02T21:56:43.198Z,59.57
2023-04-02T21:59:12.462Z,59.85
2023-04-02T22:01:42.332Z,60.37
2023-04-02T22:04:15.069Z,59.54
2023-04-02T22:06:42.979Z,59.54
2023-04-02T22:09:15.694Z,60.22
2023-04-02T22:11:50.289Z,59.90
2023-04-02T22:14:17.884Z,59.77
2023-04-02T22:16:44.816Z,59.74
2023-04-02T22:19:14.690Z,59.17
2023-04-02T22:21:42.050Z,59.13
2023-04-02T22:24:13.590Z,58.98
2023-04-02T22:26:41.211Z,58.50
2023-04-02T22:29:08.576Z,59.01
2023-04-02T22:31:35.633Z,58.84
2023-04-02T22:34:03.988Z,58.44
2023-04-02T22:36:31.609Z,58.39
2023-04-02T22:38:59.827Z,58.73
2023-04-02T22:41:28.869Z,59.27
2023-04-02T22:43:56.829Z,60.14
2023-04-02T22:46:25.832Z,59.81
2023-04-02T22:48:53.065Z,60.73
2023-04-02T22:51:21.987Z,60.47
2023-04-02T22:53:49.732Z,60.43
2023-04-02T22:56:19.703Z,60.75
2023-04-02T22:58:46.520Z,60.52
2023-04-02T23:01:15.422Z,60.11
2023-04-02T23:03:43.092Z,60.43
2023-04-02T23:06:12.916Z,60.63
2023-04-02T23:08:40.795Z,60.96
2023-04-02T23:11:09.309Z,60.88
2023-04-02T23:13:37.101Z,60.58
2023-04-02T23:16:06.630Z,60.92
2023-04-02T23:18:38.203Z,60.91
2023-04-02T23:21:05.895Z,60.71
2023-04-02T23:23:33.319Z,60.79
2023-04-02T23:26:10.710Z,60.14
2023-04-02T23:28:39.905Z,59.99
2023-04-02T23:31:09.356Z,59.92
2023-04-02T23:33:36.515Z,59.53
2023-04-02T23:36:08.833Z,60.25
2023-04-02T23:38:36.013Z,60.23
2023-04-02T23:41:03.083Z,60.99
2023-04-02T23:43:30.052Z,61.28
2023-04-02T23:45:57.082Z,62.08
2023-04-02T23:48:24.136Z,62.18
2023-04-02T23:50:51.120Z,61.75
2023-04-02T23:53:18.206Z,61.94
2023-04-02T23:55:45.068Z,62.25
2023-04-02T23:58:11.953Z,62.01
